Time;durP1;ratioP1;P1;durP2;ratioP2;P2;SDS_P1;SDS_P2;PMS_P1;PMS_P2;Temp;Humidity;BMP_temperature;BMP_pressure;BME280_temperature;BME280_humidity;BME280_pressure;Samples;Min_cycle;Max_cycle;Signal;HPM_P1;HPM_P2
2021/05/30 00:00:00;;;;;;;8.80;6.82;;;;;;;15.50;34.16;102306.09;3539112;40;20046;-79
2021/05/30 00:02:27;;;;;;;9.10;6.40;;;;;;;15.47;34.72;102305.50;3551394;40;20061;-79
2021/05/30 00:04:55;;;;;;;9.57;6.65;;;;;;;15.40;34.37;102300.47;3550912;40;20046;-76
2021/05/30 00:07:23;;;;;;;9.18;6.72;;;;;;;15.36;34.49;102301.75;3547045;40;20039;-78
2021/05/30 00:09:52;;;;;;;9.20;6.18;;;;;;;15.33;34.67;102301.13;3540262;40;20030;-78
2021/05/30 00:12:21;;;;;;;8.63;6.38;;;;;;;15.29;34.41;102302.38;3549440;40;20062;-78
2021/05/30 00:14:50;;;;;;;8.20;6.32;;;;;;;15.24;34.61;102301.88;3558202;40;20379;-78
2021/05/30 00:17:18;;;;;;;9.27;6.40;;;;;;;15.21;34.63;102307.66;3550435;40;20034;-78
2021/05/30 00:19:46;;;;;;;9.75;6.30;;;;;;;15.18;34.91;102303.28;3550994;40;20034;-79
2021/05/30 00:22:13;;;;;;;8.45;6.03;;;;;;;15.16;35.16;102307.16;3550839;40;20320;-79
2021/05/30 00:24:41;;;;;;;9.85;6.40;;;;;;;15.12;35.23;102306.56;3551013;40;20042;-78
2021/05/30 00:27:09;;;;;;;7.85;5.97;;;;;;;15.09;35.21;102305.91;3550896;40;20313;-78
2021/05/30 00:29:38;;;;;;;8.70;6.10;;;;;;;15.06;34.82;102307.06;3551157;40;20439;-79
2021/05/30 00:32:08;;;;;;;9.90;6.50;;;;;;;15.05;35.32;102308.94;3551116;40;20398;-78
2021/05/30 00:34:39;;;;;;;8.23;6.23;;;;;;;14.97;35.12;102305.06;3541412;40;20035;-78
2021/05/30 00:37:07;;;;;;;8.13;6.25;;;;;;;14.94;35.36;102306.19;3538812;40;20050;-78
2021/05/30 00:39:35;;;;;;;8.00;5.60;;;;;;;14.91;34.96;102305.53;3540204;40;20035;-78
2021/05/30 00:42:03;;;;;;;7.72;5.85;;;;;;;14.88;35.05;102308.56;3540151;40;20051;-78
2021/05/30 00:44:32;;;;;;;8.65;6.63;;;;;;;14.84;35.64;102307.94;3540880;40;20401;-79
2021/05/30 00:47:00;;;;;;;8.77;5.65;;;;;;;14.83;35.30;102308.06;3540087;40;20067;-78
2021/05/30 00:49:29;;;;;;;8.88;6.15;;;;;;;14.82;35.26;102312.69;3540980;40;20091;-79
2021/05/30 00:51:56;;;;;;;7.78;5.70;;;;;;;14.81;35.34;102304.56;3549061;40;20050;-78
2021/05/30 00:54:24;;;;;;;8.45;5.80;;;;;;;14.79;35.45;102315.72;3548288;40;20055;-79
2021/05/30 00:56:52;;;;;;;7.75;6.05;;;;;;;14.78;35.75;102313.94;3540867;40;20038;-79
2021/05/30 00:59:19;;;;;;;8.73;6.55;;;;;;;14.78;35.52;102308.44;3531846;40;20038;-79
2021/05/30 01:01:48;;;;;;;8.45;6.05;;;;;;;14.80;35.58;102311.06;3541306;40;20396;-79
2021/05/30 01:04:17;;;;;;;9.77;6.45;;;;;;;14.76;35.59;102306.78;3544703;40;20056;-78
2021/05/30 01:06:45;;;;;;;8.57;6.03;;;;;;;14.77;35.59;102309.44;3550760;40;20042;-79
2021/05/30 01:09:13;;;;;;;8.15;6.20;;;;;;;14.73;35.48;102299.66;3550838;40;20050;-79
2021/05/30 01:11:46;;;;;;;8.52;6.05;;;;;;;14.78;35.75;102313.06;3541246;40;20423;-79
2021/05/30 01:14:14;;;;;;;8.25;6.15;;;;;;;14.72;35.82;102310.78;3541432;40;20054;-78
2021/05/30 01:16:42;;;;;;;8.50;6.65;;;;;;;14.69;35.48;102304.53;3541375;40;20054;-78
2021/05/30 01:19:12;;;;;;;9.07;6.53;;;;;;;14.69;36.12;102303.63;3550408;40;20041;-79
2021/05/30 01:21:44;;;;;;;8.70;6.10;;;;;;;14.66;35.59;102304.75;3541317;40;20116;-79
2021/05/30 01:24:14;;;;;;;9.82;6.47;;;;;;;14.64;35.69;102300.41;3541186;40;20398;-78
2021/05/30 01:26:42;;;;;;;8.88;6.38;;;;;;;14.59;35.65;102294.38;3541653;40;20074;-78
2021/05/30 01:29:10;;;;;;;9.32;6.07;;;;;;;14.58;35.96;102301.75;3549463;40;20287;-78
2021/05/30 01:31:38;;;;;;;8.45;6.60;;;;;;;14.56;35.51;102306.53;3549742;40;20030;-78
2021/05/30 01:34:06;;;;;;;8.63;6.65;;;;;;;14.54;35.70;102299.38;3550215;40;20034;-78
2021/05/30 01:36:35;;;;;;;8.15;6.47;;;;;;;14.52;35.93;102302.25;3540620;40;20030;-78
2021/05/30 01:39:03;;;;;;;10.20;7.03;;;;;;;14.50;35.39;102301.50;3550415;40;20046;-79
2021/05/30 01:41:31;;;;;;;9.90;6.80;;;;;;;14.50;35.65;102293.22;3549565;40;20026;-79
2021/05/30 01:43:59;;;;;;;8.35;6.82;;;;;;;14.46;35.89;102302.75;3536921;40;20031;-78
2021/05/30 01:46:27;;;;;;;9.95;6.43;;;;;;;14.43;35.92;102294.72;3550530;40;20258;-78
2021/05/30 01:48:55;;;;;;;8.70;7.05;;;;;;;14.42;35.81;102300.34;3550141;40;20373;-78
2021/05/30 01:51:23;;;;;;;9.00;6.22;;;;;;;14.40;35.56;102300.50;3550440;40;20272;-78
2021/05/30 01:53:53;;;;;;;9.15;6.82;;;;;;;14.38;35.70;102298.84;3550099;40;20034;-79
2021/05/30 01:59:09;;;;;;;9.40;6.53;;;;;;;14.34;35.69;102298.22;3543403;40;20037;-78
2021/05/30 02:01:37;;;;;;;8.15;6.15;;;;;;;14.32;35.93;102307.59;3550092;40;20046;-79
2021/05/30 02:04:08;;;;;;;8.40;6.03;;;;;;;14.30;35.77;102302.22;3539742;40;20061;-78
2021/05/30 02:06:37;;;;;;;9.55;6.28;;;;;;;14.27;35.84;102300.56;3547104;40;20170;-78
2021/05/30 02:09:05;;;;;;;7.90;6.05;;;;;;;14.27;36.12;102305.19;3540830;40;20384;-79
2021/05/30 02:11:33;;;;;;;8.20;6.05;;;;;;;14.23;36.01;102300.97;3541893;40;20067;-79
2021/05/30 02:14:02;;;;;;;8.65;6.35;;;;;;;14.22;35.67;102300.06;3550130;40;20035;-79
2021/05/30 02:16:33;;;;;;;9.15;5.70;;;;;;;14.21;35.70;102301.06;3539054;40;20062;-79
2021/05/30 02:19:01;;;;;;;8.50;6.22;;;;;;;14.18;35.74;102303.19;3549791;40;20065;-78
2021/05/30 02:21:39;;;;;;;8.40;6.35;;;;;;;14.19;36.45;102307.69;3549619;40;20034;-79
2021/05/30 02:24:08;;;;;;;10.43;6.45;;;;;;;14.14;35.97;102305.31;3550041;40;20027;-79
2021/05/30 02:26:36;;;;;;;9.25;6.97;;;;;;;14.10;36.13;102303.78;3549678;40;20050;-79
2021/05/30 02:29:05;;;;;;;8.65;6.65;;;;;;;14.08;36.10;102308.53;3549167;40;20031;-78
2021/05/30 02:31:34;;;;;;;10.00;6.32;;;;;;;14.06;36.43;102315.16;3549748;40;20030;-79
2021/05/30 02:34:03;;;;;;;9.43;6.63;;;;;;;14.04;35.86;102311.66;3549555;40;20041;-79
2021/05/30 02:36:31;;;;;;;8.10;6.25;;;;;;;13.99;36.24;102305.63;3549933;40;21360;-79
2021/05/30 02:38:59;;;;;;;9.40;7.10;;;;;;;13.97;36.21;102310.38;3549682;40;20069;-79
2021/05/30 02:41:26;;;;;;;9.75;7.22;;;;;;;13.93;36.01;102306.97;3541561;40;20034;-79
2021/05/30 02:43:54;;;;;;;8.63;7.05;;;;;;;13.90;36.59;102308.09;3549707;40;20030;-78
2021/05/30 02:46:22;;;;;;;9.38;6.38;;;;;;;13.87;36.43;102311.09;3549376;40;20045;-79
2021/05/30 02:48:50;;;;;;;8.45;6.65;;;;;;;13.85;36.38;102309.41;3540429;40;20055;-78
2021/05/30 02:51:18;;;;;;;11.30;6.63;;;;;;;13.81;36.44;102311.53;3533307;40;20307;-79
2021/05/30 02:53:46;;;;;;;9.20;7.03;;;;;;;13.76;36.48;102307.34;3536541;40;20042;-78
2021/05/30 02:56:14;;;;;;;10.52;6.85;;;;;;;13.73;36.36;102305.75;3549532;40;20043;-78
2021/05/30 02:58:41;;;;;;;9.50;7.10;;;;;;;13.70;36.42;102307.84;3540755;40;20030;-78
2021/05/30 03:01:09;;;;;;;9.20;6.82;;;;;;;13.66;36.67;102320.97;3549407;40;20085;-78
2021/05/30 03:03:37;;;;;;;10.20;6.85;;;;;;;13.63;36.88;102312.94;3549620;40;20113;-78
2021/05/30 03:06:06;;;;;;;8.85;6.88;;;;;;;13.62;37.07;102315.81;3545475;40;20127;-78
2021/05/30 03:08:34;;;;;;;10.52;6.65;;;;;;;13.59;36.79;102316.03;3549345;40;20050;-78
2021/05/30 03:11:02;;;;;;;10.45;7.50;;;;;;;13.57;37.22;102318.03;3549579;40;20136;-79
2021/05/30 03:13:30;;;;;;;9.63;6.75;;;;;;;13.53;36.92;102309.13;3548445;40;20323;-78
2021/05/30 03:15:58;;;;;;;11.07;7.45;;;;;;;13.48;37.24;102312.25;3549284;40;20311;-78
2021/05/30 03:18:25;;;;;;;9.00;6.97;;;;;;;13.43;37.26;102311.69;3550764;40;20030;-78
2021/05/30 03:20:53;;;;;;;9.43;7.25;;;;;;;13.38;36.96;102319.41;3550056;40;20059;-78
2021/05/30 03:23:22;;;;;;;10.10;6.93;;;;;;;13.35;37.07;102319.63;3551176;40;20031;-78
2021/05/30 03:25:49;;;;;;;9.02;6.68;;;;;;;13.28;37.03;102311.97;3542214;40;20058;-78
2021/05/30 03:28:17;;;;;;;10.88;6.55;;;;;;;13.24;37.48;102318.72;3534001;40;20121;-78
2021/05/30 03:30:45;;;;;;;10.82;7.00;;;;;;;13.20;37.53;102317.16;3543052;40;20109;-79
2021/05/30 03:33:12;;;;;;;9.43;6.95;;;;;;;13.15;37.28;102318.41;3550954;40;20080;-78
2021/05/30 03:35:40;;;;;;;9.32;6.60;;;;;;;13.12;37.60;102318.63;3551222;40;20070;-78
2021/05/30 03:38:11;;;;;;;10.43;7.22;;;;;;;13.09;37.47;102318.81;3550602;40;20027;-78
2021/05/30 03:40:46;;;;;;;10.10;6.85;;;;;;;13.07;37.72;102319.97;3541257;40;20097;-78
2021/05/30 03:43:14;;;;;;;9.45;6.15;;;;;;;13.02;37.90;102319.41;3541759;40;20094;-78
2021/05/30 03:45:43;;;;;;;9.85;7.22;;;;;;;12.99;37.78;102319.66;3548537;40;20039;-83
2021/05/30 03:48:10;;;;;;;11.10;7.07;;;;;;;12.95;37.53;102321.72;3552189;40;20058;-79
2021/05/30 03:50:38;;;;;;;9.85;7.43;;;;;;;12.95;37.86;102320.84;3545544;40;20082;-81
2021/05/30 03:53:07;;;;;;;9.43;7.25;;;;;;;12.94;38.05;102321.84;3555482;40;20324;-78
2021/05/30 03:55:34;;;;;;;9.93;6.97;;;;;;;12.94;38.18;102319.09;3548847;40;20114;-78
2021/05/30 03:58:03;;;;;;;8.75;6.72;;;;;;;12.95;38.25;102316.22;3548457;40;20447;-79
2021/05/30 04:00:30;;;;;;;10.70;7.28;;;;;;;12.94;38.19;102328.19;3535058;40;20078;-78
2021/05/30 04:02:58;;;;;;;9.52;6.72;;;;;;;12.95;37.83;102313.47;3541718;40;20042;-78
2021/05/30 04:05:26;;;;;;;10.68;7.55;;;;;;;12.96;37.74;102317.09;3550813;40;20031;-78
2021/05/30 04:07:54;;;;;;;9.50;7.03;;;;;;;12.97;37.90;102319.75;3541560;40;20085;-78
2021/05/30 04:10:22;;;;;;;8.82;6.70;;;;;;;12.97;38.05;102319.75;3550825;40;20045;-78
2021/05/30 04:12:49;;;;;;;9.82;7.20;;;;;;;12.98;38.22;102324.25;3546251;40;20030;-77
2021/05/30 04:15:18;;;;;;;10.10;7.05;;;;;;;13.00;38.05;102321.41;3549521;40;20054;-78
2021/05/30 04:17:46;;;;;;;10.13;6.95;;;;;;;12.98;37.98;102320.63;3551439;40;20085;-78
2021/05/30 04:20:26;;;;;;;9.30;6.80;;;;;;;12.96;38.00;102326.22;3542751;40;20380;-78
2021/05/30 04:22:53;;;;;;;10.15;6.57;;;;;;;12.95;38.09;102320.84;3551661;40;20039;-79
2021/05/30 04:25:22;;;;;;;10.73;7.45;;;;;;;12.95;37.77;102331.81;3550827;40;20035;-77
2021/05/30 04:27:49;;;;;;;9.20;6.72;;;;;;;12.94;37.84;102327.31;3546999;40;20058;-79
2021/05/30 04:30:21;;;;;;;9.85;6.97;;;;;;;12.94;38.20;102328.19;3555788;40;20065;-80
2021/05/30 04:32:51;;;;;;;9.45;6.90;;;;;;;12.92;38.31;102329.31;3539084;40;20065;-77
2021/05/30 04:35:18;;;;;;;9.07;6.70;;;;;;;12.90;38.31;102325.78;3548295;40;20307;-77
2021/05/30 04:37:49;;;;;;;9.85;6.47;;;;;;;12.90;37.98;102326.66;3550106;40;20404;-77
2021/05/30 04:40:18;;;;;;;10.95;7.47;;;;;;;12.89;38.48;102326.75;3551029;40;20034;-77
2021/05/30 04:43:05;;;;;;;9.02;6.78;;;;;;;12.86;38.03;102327.84;3550000;40;20050;-77
2021/05/30 04:45:38;;;;;;;11.02;7.10;;;;;;;12.89;38.42;102324.00;3541234;40;20034;-78
2021/05/30 04:48:25;;;;;;;9.88;6.70;;;;;;;12.86;38.33;102326.97;3550215;40;20034;-79
2021/05/30 04:51:13;;;;;;;8.65;6.55;;;;;;;12.87;38.34;102331.47;3547231;40;20074;-78
2021/05/30 04:54:01;;;;;;;9.77;6.68;;;;;;;12.87;38.60;102320.50;3546300;40;20041;-78
2021/05/30 04:56:37;;;;;;;9.52;6.65;;;;;;;12.89;38.48;102333.13;3548441;40;20051;-79
2021/05/30 04:59:15;;;;;;;10.10;6.80;;;;;;;12.91;38.76;102330.28;3540817;40;20027;-79
2021/05/30 05:02:04;;;;;;;9.88;7.22;;;;;;;12.92;39.13;102332.97;3541434;40;20030;-79
2021/05/30 05:04:52;;;;;;;8.88;6.78;;;;;;;12.94;39.38;102327.31;3540917;40;20063;-78
2021/05/30 05:07:40;;;;;;;9.48;7.03;;;;;;;12.98;39.54;102329.75;3539518;40;20038;-78
2021/05/30 05:10:28;;;;;;;9.27;6.70;;;;;;;13.04;39.53;102328.41;3541140;40;20035;-77
2021/05/30 05:13:16;;;;;;;9.93;7.15;;;;;;;13.12;39.63;102328.72;3540876;40;20079;-78
2021/05/30 05:16:04;;;;;;;10.18;6.97;;;;;;;13.22;40.10;102328.94;3542569;40;20140;-78
2021/05/30 05:18:53;;;;;;;9.27;7.13;;;;;;;13.35;39.97;102329.75;3542852;40;20051;-78
2021/05/30 05:21:40;;;;;;;10.00;7.50;;;;;;;13.47;40.35;102329.72;3542970;40;20050;-83
2021/05/30 05:24:28;;;;;;;9.60;7.00;;;;;;;13.62;40.17;102329.56;3539731;40;20054;-79
2021/05/30 05:27:15;;;;;;;9.38;6.80;;;;;;;13.77;40.21;102331.13;3540748;40;20057;-78
2021/05/30 05:30:04;;;;;;;9.48;6.70;;;;;;;13.92;40.16;102330.84;3538935;40;20042;-78
2021/05/30 05:32:48;;;;;;;10.25;6.93;;;;;;;14.07;39.58;102333.44;3544193;40;20034;-78
2021/05/30 05:35:37;;;;;;;9.48;7.15;;;;;;;14.22;40.05;102326.72;3550097;40;20078;-78
2021/05/30 05:38:24;;;;;;;9.55;7.03;;;;;;;14.36;39.47;102337.50;3548530;40;20082;-78
2021/05/30 05:41:12;;;;;;;10.35;7.35;;;;;;;14.51;39.17;102333.53;3550007;40;20166;-78
2021/05/30 05:43:59;;;;;;;9.88;6.78;;;;;;;14.65;39.01;102332.44;3538783;40;20035;-78
2021/05/30 05:46:47;;;;;;;8.73;6.82;;;;;;;14.80;39.25;102335.88;3540382;40;20074;-78
2021/05/30 05:49:34;;;;;;;9.82;7.22;;;;;;;14.93;38.68;102334.75;3540246;40;20293;-78
2021/05/30 05:52:22;;;;;;;9.05;6.55;;;;;;;15.05;38.56;102333.75;3542137;40;20066;-78
2021/05/30 05:55:10;;;;;;;8.60;6.35;;;;;;;15.18;38.41;102338.22;3548683;40;20049;-78
2021/05/30 05:57:50;;;;;;;9.38;6.57;;;;;;;15.28;38.17;102333.72;3533422;40;20035;-79
2021/05/30 06:00:37;;;;;;;8.60;6.75;;;;;;;15.36;37.96;102342.22;3549305;40;20064;-78
2021/05/30 06:03:25;;;;;;;10.80;7.38;;;;;;;15.42;38.16;102341.72;3549268;40;20082;-77
2021/05/30 06:06:13;;;;;;;9.55;6.80;;;;;;;15.50;38.09;102346.56;3539980;40;20031;-78
2021/05/30 06:09:01;;;;;;;8.43;6.00;;;;;;;15.59;37.44;102348.56;3539924;40;20267;-79
2021/05/30 06:11:49;;;;;;;9.70;7.07;;;;;;;15.64;37.33;102357.38;3532324;40;20047;-78
2021/05/30 06:14:36;;;;;;;8.32;6.32;;;;;;;15.70;37.48;102357.75;3539821;40;20068;-78
2021/05/30 06:17:24;;;;;;;7.65;5.40;;;;;;;15.76;37.38;102348.94;3539574;40;20043;-78
2021/05/30 06:20:13;;;;;;;8.15;6.35;;;;;;;15.84;37.67;102353.78;3539816;40;20047;-78
2021/05/30 06:23:00;;;;;;;8.38;5.90;;;;;;;15.92;37.69;102355.91;3539879;40;20048;-78
2021/05/30 06:25:50;;;;;;;7.97;5.47;;;;;;;16.03;37.33;102353.97;3537843;40;20373;-78
2021/05/30 06:28:39;;;;;;;7.60;5.43;;;;;;;16.12;37.56;102357.84;3517874;40;20047;-78
2021/05/30 06:31:27;;;;;;;7.22;5.40;;;;;;;16.22;36.99;102355.16;3539457;40;20322;-78
2021/05/30 06:34:15;;;;;;;6.60;5.05;;;;;;;16.33;37.00;102349.56;3547259;40;20031;-79
2021/05/30 06:36:44;;;;;;;6.43;4.45;;;;;;;16.46;36.64;102353.88;3539781;40;20049;-78
2021/05/30 06:39:34;;;;;;;7.20;4.47;;;;;;;16.58;36.86;102353.84;3544960;40;20113;-78
2021/05/30 06:42:23;;;;;;;5.55;4.13;;;;;;;16.71;36.52;102351.75;3531375;40;20384;-78
2021/05/30 06:45:11;;;;;;;6.30;4.32;;;;;;;16.86;36.37;102358.66;3553913;40;20073;-78
2021/05/30 06:48:00;;;;;;;6.97;3.97;;;;;;;16.98;36.14;102357.56;3548554;40;20058;-78
2021/05/30 06:51:12;;;;;;;6.05;4.45;;;;;;;17.13;36.01;102360.81;3532629;40;20038;-79
2021/05/30 06:53:58;;;;;;;6.13;4.40;;;;;;;17.28;35.36;102365.88;3540269;40;20061;-78
2021/05/30 06:56:49;;;;;;;6.23;4.37;;;;;;;17.39;35.33;102364.88;3541260;40;20309;-79
2021/05/30 06:59:37;;;;;;;5.82;4.43;;;;;;;17.56;35.19;102361.44;3542821;40;20046;-78
2021/05/30 07:02:25;;;;;;;6.20;3.95;;;;;;;17.69;34.98;102361.19;3542172;40;20083;-79
2021/05/30 07:05:14;;;;;;;6.13;3.67;;;;;;;17.81;34.93;102371.09;3548840;40;20061;-75
2021/05/30 07:08:01;;;;;;;5.95;4.07;;;;;;;17.93;34.49;102369.09;3549996;40;20072;-77
2021/05/30 07:10:49;;;;;;;6.45;4.18;;;;;;;18.04;34.08;102368.97;3541701;40;20087;-77
2021/05/30 07:13:37;;;;;;;5.47;3.97;;;;;;;18.14;34.34;102372.63;3539839;40;20329;-76
2021/05/30 07:16:25;;;;;;;6.43;4.18;;;;;;;18.25;33.67;102366.94;3547710;40;20042;-77
2021/05/30 07:19:15;;;;;;;5.68;3.85;;;;;;;18.36;34.10;102371.47;3548485;40;20046;-77
2021/05/30 07:22:03;;;;;;;4.95;3.45;;;;;;;18.47;33.67;102364.88;3544674;40;20054;-77
2021/05/30 07:24:50;;;;;;;5.50;3.97;;;;;;;18.56;33.19;102362.09;3548089;40;20124;-77
2021/05/30 07:27:39;;;;;;;5.82;3.70;;;;;;;18.67;33.50;102358.28;3547542;40;20088;-75
2021/05/30 07:30:28;;;;;;;5.35;3.50;;;;;;;18.78;33.26;102361.78;3545385;40;20136;-77
2021/05/30 07:33:17;;;;;;;5.43;3.78;;;;;;;18.88;32.70;102360.88;3538863;40;20031;-78
2021/05/30 07:36:05;;;;;;;5.18;3.55;;;;;;;18.96;33.11;102359.09;3542834;40;20317;-77
2021/05/30 07:38:55;;;;;;;5.35;3.00;;;;;;;19.06;32.64;102368.28;3542030;40;20042;-76
2021/05/30 07:41:43;;;;;;;3.90;2.85;;;;;;;19.15;32.31;102366.50;3550306;40;20108;-76
2021/05/30 07:44:30;;;;;;;4.25;3.03;;;;;;;19.25;32.24;102363.69;3549239;40;20085;-75
2021/05/30 07:47:18;;;;;;;4.00;3.00;;;;;;;19.35;32.47;102362.56;3539262;40;20336;-76
2021/05/30 07:50:09;;;;;;;4.30;3.20;;;;;;;19.47;31.32;102369.69;3548453;40;20319;-75
2021/05/30 07:52:59;;;;;;;4.40;3.00;;;;;;;19.53;31.62;102366.31;3548515;40;20083;-76
2021/05/30 07:55:46;;;;;;;4.22;3.10;;;;;;;19.65;31.37;102369.78;3550158;40;20074;-83
2021/05/30 07:58:35;;;;;;;4.32;2.95;;;;;;;19.74;31.45;102368.84;3547277;40;20388;-82
2021/05/30 08:01:26;;;;;;;4.03;2.60;;;;;;;19.82;31.49;102368.94;3548374;40;20035;-75
2021/05/30 08:04:13;;;;;;;4.15;2.67;;;;;;;19.89;31.35;102370.03;3545774;40;20090;-77
2021/05/30 08:07:04;;;;;;;4.13;2.70;;;;;;;20.00;30.58;102362.50;3549380;40;20399;-77
2021/05/30 08:09:55;;;;;;;4.18;2.70;;;;;;;20.05;30.29;102365.69;3521200;40;20073;-75
2021/05/30 08:12:43;;;;;;;4.30;2.78;;;;;;;20.10;30.57;102360.50;3547073;40;20046;-76
2021/05/30 08:15:31;;;;;;;3.65;2.33;;;;;;;20.14;29.95;102357.28;3548331;40;20058;-75
2021/05/30 08:18:19;;;;;;;3.67;2.55;;;;;;;20.17;29.94;102356.09;3546371;40;20073;-75
2021/05/30 08:21:06;;;;;;;3.50;2.28;;;;;;;20.20;29.62;102362.19;3546814;40;20058;-80
2021/05/30 08:23:35;;;;;;;3.08;2.13;;;;;;;20.25;29.29;102361.75;3549385;40;20050;-77
2021/05/30 08:26:03;;;;;;;5.10;2.53;;;;;;;20.26;29.19;102350.44;3548835;40;20047;-77
2021/05/30 08:28:31;;;;;;;3.45;2.50;;;;;;;20.32;29.08;102357.31;3549311;40;20136;-77
2021/05/30 08:30:58;;;;;;;3.92;2.33;;;;;;;20.35;29.22;102348.63;3549068;40;20046;-75
2021/05/30 08:37:54;;;;;;;3.17;2.05;;;;;;;20.39;29.17;102350.06;3537744;40;20035;-77
2021/05/30 08:40:24;;;;;;;3.00;2.10;;;;;;;20.52;28.81;102346.84;3548633;40;20112;-77
2021/05/30 08:42:52;;;;;;;3.78;2.38;;;;;;;20.58;29.05;102347.06;3549750;40;20459;-74
2021/05/30 08:45:21;;;;;;;3.45;2.25;;;;;;;20.65;29.04;102350.97;3547649;40;20042;-75
2021/05/30 08:47:51;;;;;;;3.40;2.05;;;;;;;20.74;28.24;102346.34;3547960;40;20297;-77
2021/05/30 08:50:20;;;;;;;4.20;2.20;;;;;;;20.79;28.00;102348.59;3539338;40;20069;-76
2021/05/30 08:52:48;;;;;;;4.32;2.33;;;;;;;20.85;28.14;102342.38;3546126;40;20050;-76
2021/05/30 08:55:16;;;;;;;3.67;2.30;;;;;;;20.91;27.78;102344.56;3542713;40;20050;-66
2021/05/30 08:57:45;;;;;;;4.05;2.42;;;;;;;20.99;27.75;102344.63;3538661;40;20046;-66
2021/05/30 09:00:22;;;;;;;3.33;2.05;;;;;;;21.05;26.55;102341.16;3546048;40;20043;-67
2021/05/30 09:03:14;;;;;;;4.00;2.33;;;;;;;21.11;26.26;102340.50;3538149;40;20340;-67
2021/05/30 09:05:42;;;;;;;4.00;2.00;;;;;;;21.13;27.13;102349.56;3548520;40;20060;-66
2021/05/30 09:08:10;;;;;;;3.20;2.03;;;;;;;21.19;27.12;102345.22;3538981;40;20085;-66
2021/05/30 09:10:53;;;;;;;3.88;2.08;;;;;;;21.27;26.77;102332.22;3538021;40;20061;-69
2021/05/30 09:13:24;;;;;;;5.65;2.15;;;;;;;21.32;27.25;102334.50;3548018;40;20061;-66
2021/05/30 09:15:55;;;;;;;3.03;1.80;;;;;;;21.38;26.92;102331.06;3548873;40;20057;-70
2021/05/30 09:18:26;;;;;;;2.83;1.92;;;;;;;21.47;27.01;102330.03;3548623;40;20066;-68
2021/05/30 09:21:00;;;;;;;5.65;2.58;;;;;;;21.54;27.34;102328.31;3541825;40;20129;-69
2021/05/30 09:23:31;;;;;;;2.60;1.80;;;;;;;21.64;26.69;102331.88;3548893;40;20046;-69
2021/05/30 09:26:14;;;;;;;2.83;1.90;;;;;;;21.74;26.39;102334.47;3547679;40;20050;-69
2021/05/30 09:29:04;;;;;;;6.45;3.03;;;;;;;21.80;26.08;102329.13;3539710;40;20426;-70
2021/05/30 09:31:33;;;;;;;3.50;2.05;;;;;;;21.91;26.30;102321.47;3546597;40;20391;-69
2021/05/30 09:34:24;;;;;;;2.95;2.05;;;;;;;21.98;25.56;102315.06;3546119;40;20406;-71
2021/05/30 09:36:53;;;;;;;4.40;2.50;;;;;;;22.05;26.68;102318.88;3547916;40;20054;-69
2021/05/30 09:39:35;;;;;;;10.32;6.88;;;;;;;22.17;25.66;102324.97;3539011;40;20110;-70
2021/05/30 09:42:36;;;;;;;6.15;4.40;;;;;;;22.20;26.16;102321.84;3544810;40;20169;-70
2021/05/30 09:45:25;;;;;;;37.05;21.20;;;;;;;22.31;26.10;102323.47;3545321;40;20050;-68
2021/05/30 09:48:20;;;;;;;17.42;11.55;;;;;;;22.38;25.38;102322.59;3546036;40;20056;-69
2021/05/30 09:51:26;;;;;;;13.00;8.73;;;;;;;22.42;25.38;102312.81;3545011;40;20050;-70
2021/05/30 09:54:07;;;;;;;13.23;10.38;;;;;;;22.48;25.95;102316.81;3550582;40;20495;-70
2021/05/30 09:57:09;;;;;;;6.63;4.97;;;;;;;22.58;24.60;102312.78;3546800;40;20034;-70
2021/05/30 09:59:56;;;;;;;5.07;3.13;;;;;;;22.63;25.53;102319.78;3547331;40;20062;-70
2021/05/30 10:02:45;;;;;;;4.97;3.15;;;;;;;22.70;25.49;102301.28;3547349;40;20129;-72
2021/05/30 10:05:34;;;;;;;6.70;3.78;;;;;;;22.75;25.81;102308.06;3540018;40;20394;-69
2021/05/30 10:08:53;;;;;;;3.60;2.20;;;;;;;22.78;24.66;102302.13;3547743;40;20026;-69
2021/05/30 10:11:28;;;;;;;3.58;2.45;;;;;;;22.84;25.54;102300.56;3542801;40;20046;-69
2021/05/30 10:14:19;;;;;;;3.08;2.20;;;;;;;22.92;25.40;102303.31;3544843;40;20104;-70
2021/05/30 10:17:07;;;;;;;4.95;2.75;;;;;;;23.00;25.23;102302.44;3543955;40;20054;-69
2021/05/30 10:19:59;;;;;;;3.13;2.00;;;;;;;23.08;24.85;102305.19;3544863;40;20078;-69
2021/05/30 10:22:51;;;;;;;3.67;2.33;;;;;;;23.16;24.77;102302.38;3542706;40;20427;-70
2021/05/30 10:25:44;;;;;;;9.48;2.67;;;;;;;23.20;24.70;102299.06;3546767;40;20056;-71
2021/05/30 10:28:52;;;;;;;4.90;2.08;;;;;;;23.30;24.65;102301.63;3547547;40;20054;-68
2021/05/30 10:31:41;;;;;;;3.75;2.00;;;;;;;23.38;24.94;102301.59;3547000;40;20042;-71
2021/05/30 10:34:29;;;;;;;3.28;1.90;;;;;;;23.46;24.47;102300.72;3547843;40;20115;-70
2021/05/30 10:37:26;;;;;;;3.25;2.03;;;;;;;23.55;23.56;102292.06;3545281;40;20054;-72
2021/05/30 10:40:28;;;;;;;3.45;2.13;;;;;;;23.56;23.11;102296.59;3546261;40;20062;-72
2021/05/30 10:43:19;;;;;;;3.20;2.35;;;;;;;23.54;23.74;102293.16;3544033;40;20063;-72
2021/05/30 10:46:09;;;;;;;9.45;2.65;;;;;;;23.56;23.44;102296.59;3543689;40;20059;-70
2021/05/30 10:49:08;;;;;;;4.03;1.98;;;;;;;23.57;23.22;102291.91;3545753;40;20311;-73
2021/05/30 10:51:55;;;;;;;2.72;1.73;;;;;;;23.52;23.49;102289.66;3543371;40;20080;-70
2021/05/30 10:54:44;;;;;;;4.45;2.72;;;;;;;23.56;23.48;102291.03;3545247;40;20051;-70
2021/05/30 10:57:39;;;;;;;3.85;2.47;;;;;;;23.58;23.00;102282.47;3543958;40;20062;-70
2021/05/30 11:00:35;;;;;;;4.80;2.50;;;;;;;23.57;22.57;102283.50;3547869;40;20732;-70
2021/05/30 11:03:23;;;;;;;4.13;2.28;;;;;;;23.55;23.39;102280.91;3548204;40;20448;-70
2021/05/30 11:06:31;;;;;;;3.20;1.90;;;;;;;23.59;23.50;102278.63;3544894;40;20042;-70
2021/05/30 11:09:20;;;;;;;3.00;1.85;;;;;;;23.60;23.42;102270.06;3540704;40;20386;-70
2021/05/30 11:12:17;;;;;;;3.40;2.13;;;;;;;23.66;23.46;102279.63;3546812;40;20892;-69
2021/05/30 11:15:18;;;;;;;2.90;2.00;;;;;;;23.69;22.88;102273.69;3544113;40;20054;-69
2021/05/30 11:17:49;;;;;;;3.53;2.00;;;;;;;23.71;23.49;102268.78;3542680;40;20066;-69
2021/05/30 11:20:21;;;;;;;4.28;2.30;;;;;;;23.75;23.46;102269.25;3542018;40;20066;-69
2021/05/30 11:22:50;;;;;;;3.60;2.20;;;;;;;23.76;22.97;102268.22;3548041;40;20058;-69
2021/05/30 11:25:21;;;;;;;3.63;2.13;;;;;;;23.76;23.08;102263.50;3543949;40;20140;-69
2021/05/30 11:27:56;;;;;;;4.18;2.40;;;;;;;23.75;22.83;102255.28;3547570;40;20050;-68
2021/05/30 11:30:52;;;;;;;3.40;2.10;;;;;;;23.65;23.33;102256.41;3545478;40;20455;-69
2021/05/30 11:33:46;;;;;;;3.28;2.30;;;;;;;23.63;23.08;102255.72;3544874;40;20054;-69
2021/05/30 11:36:26;;;;;;;3.90;2.33;;;;;;;23.64;23.04;102259.38;3547976;40;20312;-69
2021/05/30 11:38:57;;;;;;;2.95;2.03;;;;;;;23.59;23.15;102245.97;3545612;40;20171;-69
2021/05/30 11:41:28;;;;;;;3.20;2.00;;;;;;;23.57;22.75;102245.28;3538480;40;20057;-69
2021/05/30 11:44:06;;;;;;;3.13;2.08;;;;;;;23.56;22.34;102237.06;3544590;40;20051;-68
2021/05/30 11:46:38;;;;;;;3.22;2.30;;;;;;;23.51;22.72;102233.97;3548340;40;20065;-69
2021/05/30 11:49:12;;;;;;;3.10;1.90;;;;;;;23.51;22.69;102236.78;3546372;40;20038;-69
2021/05/30 11:52:00;;;;;;;3.67;2.28;;;;;;;23.47;22.39;102224.22;3547955;40;20054;-69
2021/05/30 11:54:32;;;;;;;3.92;2.10;;;;;;;23.47;22.88;102227.88;3546926;40;20386;-69
2021/05/30 11:57:02;;;;;;;4.38;2.38;;;;;;;23.45;23.28;102229.97;3545296;40;20046;-69
2021/05/30 11:59:33;;;;;;;3.70;2.20;;;;;;;23.48;22.93;102225.97;3546608;40;20054;-69
2021/05/30 12:02:03;;;;;;;4.22;2.10;;;;;;;23.44;22.99;102228.25;3544903;40;20039;-69
2021/05/30 12:04:35;;;;;;;4.63;2.40;;;;;;;23.46;22.71;102228.09;3543417;40;20054;-69
2021/05/30 12:07:05;;;;;;;3.80;2.50;;;;;;;23.42;22.99;102221.97;3548751;40;20042;-69
2021/05/30 12:09:53;;;;;;;4.10;2.40;;;;;;;23.42;22.71;102215.50;3547558;40;20058;-68
2021/05/30 12:12:23;;;;;;;2.80;1.92;;;;;;;23.42;23.41;102212.72;3544863;40;20046;-68
2021/05/30 12:14:52;;;;;;;3.22;2.20;;;;;;;23.44;22.95;102208.69;3548786;40;20451;-69
2021/05/30 12:17:20;;;;;;;3.75;2.60;;;;;;;23.41;23.13;102206.25;3549259;40;20126;-69
2021/05/30 12:19:49;;;;;;;3.53;2.20;;;;;;;23.41;22.91;102203.47;3548081;40;20046;-68